Alvordton, Ohio
Current Conditions -  °F | °C
As of 6:15 AM on Monday 22 Dec 2014 (Local Time) from KUSE Reporting Station
Haze Haze  
Wind Chill: 14°   Ceiling: Unl
Heat Index: 21°   Visibility: 4mi
Dew Point: 19°   Wind: 6mph
Humidity: 93%   Direction: 70°ENE
Pressure: 30.07"   Gusts: NA
Location:  41.67°N, 84.44°W
Report Text: KUSE 221115Z AUTO 07005KT 4SM BR CLR M06/M07 A3007 RMK AO2
Loading
Personal Weather Stations






























Interactive Weather Map New forecast layout! Learn more

10-Day Weather Forecast

Advertisements
Track Severe Weather on mobile